createdAt,value
2022-10-31T00:01:39.667Z,88235.25
2022-10-31T00:04:07.304Z,88236.44
2022-10-31T00:06:34.714Z,88233.47
2022-10-31T00:09:04.576Z,88239.06
2022-10-31T00:11:32.246Z,88234.06
2022-10-31T00:14:00.369Z,88233.56
2022-10-31T00:16:29.605Z,88238.75
2022-10-31T00:19:07.083Z,88238.69
2022-10-31T00:21:35.972Z,88239.69
2022-10-31T00:24:03.980Z,88234.75
2022-10-31T00:26:32.606Z,88239.16
2022-10-31T00:29:01.450Z,88235.78
2022-10-31T00:31:29.315Z,88234.16
2022-10-31T00:33:57.651Z,88240.13
2022-10-31T00:36:24.824Z,88228.41
2022-10-31T00:38:51.899Z,88233.56
2022-10-31T00:41:19.553Z,88233.81
2022-10-31T00:43:47.377Z,88227.03
2022-10-31T00:46:15.227Z,88229.56
2022-10-31T00:48:43.102Z,88229.56
2022-10-31T00:51:11.488Z,88231.78
2022-10-31T00:53:38.665Z,88232.13
2022-10-31T00:56:06.626Z,88231.94
2022-10-31T00:58:33.922Z,88235.00
2022-10-31T01:01:01.292Z,88234.22
2022-10-31T01:03:33.673Z,88222.88
2022-10-31T01:06:10.973Z,88228.03
2022-10-31T01:08:39.961Z,88226.44
2022-10-31T01:11:22.199Z,88220.75
2022-10-31T01:13:53.537Z,88228.22
2022-10-31T01:16:24.334Z,88225.91
2022-10-31T01:18:53.378Z,88222.06
2022-10-31T01:21:27.722Z,88222.06
2022-10-31T01:23:58.875Z,88222.19
2022-10-31T01:26:41.820Z,88225.47
2022-10-31T01:29:09.626Z,88229.22
2022-10-31T01:31:40.490Z,88226.25
2022-10-31T01:34:10.149Z,88223.63
2022-10-31T01:36:39.792Z,88224.28
2022-10-31T01:39:14.409Z,88213.78
2022-10-31T01:41:46.640Z,88214.47
2022-10-31T01:44:16.577Z,88217.94
2022-10-31T01:47:11.122Z,88211.16
2022-10-31T01:49:49.498Z,88217.09
2022-10-31T01:52:31.003Z,88206.47
2022-10-31T01:55:06.799Z,88203.00
2022-10-31T01:57:36.439Z,88203.78
2022-10-31T02:00:10.598Z,88211.22
2022-10-31T02:02:38.072Z,88204.09
2022-10-31T02:05:13.323Z,88204.44
2022-10-31T02:08:09.547Z,88202.16
2022-10-31T02:10:38.574Z,88197.56
2022-10-31T02:13:09.411Z,88196.81
2022-10-31T02:15:40.146Z,88191.22
2022-10-31T02:18:09.355Z,88189.34
2022-10-31T02:20:42.667Z,88190.47
2022-10-31T02:23:50.442Z,88191.47
2022-10-31T02:26:36.047Z,88192.09
2022-10-31T02:29:39.256Z,88189.06
2022-10-31T02:32:46.510Z,88186.44
2022-10-31T02:35:22.918Z,88187.50
2022-10-31T02:38:21.234Z,88187.09
2022-10-31T02:41:20.074Z,88189.53
2022-10-31T02:44:21.147Z,88186.81
2022-10-31T02:47:02.708Z,88185.28
2022-10-31T02:49:44.100Z,88188.66
2022-10-31T02:52:24.233Z,88187.91
2022-10-31T02:54:51.748Z,88190.88
2022-10-31T02:57:30.039Z,88189.69
2022-10-31T03:00:08.594Z,88188.16
2022-10-31T03:03:20.519Z,88186.53
2022-10-31T03:06:22.309Z,88184.59
2022-10-31T03:09:09.840Z,88184.59
2022-10-31T03:12:12.780Z,88192.44
2022-10-31T03:15:09.185Z,88193.88
2022-10-31T03:17:54.013Z,88196.50
2022-10-31T03:20:29.999Z,88189.72
2022-10-31T03:22:59.196Z,88197.59
2022-10-31T03:25:28.679Z,88188.09
2022-10-31T03:28:00.041Z,88196.72
2022-10-31T03:30:28.058Z,88199.28
2022-10-31T03:33:00.763Z,88192.50
2022-10-31T03:35:31.425Z,88198.41
2022-10-31T03:38:06.783Z,88196.09
2022-10-31T03:40:39.286Z,88195.25
2022-10-31T03:43:15.392Z,88196.34
2022-10-31T03:45:47.671Z,88194.72
2022-10-31T03:48:18.803Z,88198.09
2022-10-31T03:51:07.681Z,88195.47
2022-10-31T03:54:03.027Z,88201.84
2022-10-31T03:56:49.378Z,88194.28
2022-10-31T03:59:34.414Z,88196.81
2022-10-31T04:02:09.191Z,88203.25
2022-10-31T04:04:38.325Z,88202.16
2022-10-31T04:07:07.820Z,88193.84
2022-10-31T04:09:40.885Z,88196.06
2022-10-31T04:12:12.442Z,88196.38
2022-10-31T04:14:43.939Z,88199.44
2022-10-31T04:17:18.673Z,88207.66
2022-10-31T04:19:46.341Z,88203.06
2022-10-31T04:22:14.247Z,88203.06
2022-10-31T04:24:42.272Z,88198.91
2022-10-31T04:27:09.449Z,88199.25
2022-10-31T04:29:36.586Z,88200.66
2022-10-31T04:32:03.850Z,88194.66
2022-10-31T04:34:30.949Z,88194.22
2022-10-31T04:36:58.251Z,88193.91
2022-10-31T04:39:26.716Z,88198.38
2022-10-31T04:41:54.199Z,88198.38
2022-10-31T04:44:21.452Z,88195.00
2022-10-31T04:46:48.843Z,88197.63
2022-10-31T04:49:15.945Z,88191.50
2022-10-31T04:51:43.019Z,88189.97
2022-10-31T04:54:10.193Z,88196.31
2022-10-31T04:56:37.369Z,88188.13
2022-10-31T04:59:04.505Z,88189.19
2022-10-31T05:01:31.861Z,88195.97
2022-10-31T05:03:59.086Z,88195.63
2022-10-31T05:06:26.242Z,88189.53
2022-10-31T05:08:53.372Z,88196.63
2022-10-31T05:11:20.474Z,88196.53
2022-10-31T05:13:47.768Z,88187.13
2022-10-31T05:16:15.111Z,88197.19
2022-10-31T05:18:42.498Z,88195.69
2022-10-31T05:21:09.685Z,88192.94
2022-10-31T05:23:36.775Z,88192.94
2022-10-31T05:26:04.334Z,88188.47
2022-10-31T05:28:31.480Z,88197.00
2022-10-31T05:30:58.652Z,88196.56
2022-10-31T05:33:25.847Z,88202.13
2022-10-31T05:35:53.036Z,88201.38
2022-10-31T05:38:20.279Z,88200.94
2022-10-31T05:40:47.378Z,88205.09
2022-10-31T05:43:14.878Z,88196.03
2022-10-31T05:45:41.949Z,88202.03
2022-10-31T05:48:09.885Z,88201.28
2022-10-31T05:50:37.010Z,88200.06
2022-10-31T05:53:06.389Z,88195.56
2022-10-31T05:55:34.248Z,88202.25
2022-10-31T05:58:02.003Z,88198.88
2022-10-31T06:00:29.708Z,88204.88
2022-10-31T06:03:05.517Z,88203.44
2022-10-31T06:05:33.390Z,88205.31
2022-10-31T06:08:01.930Z,88200.38
2022-10-31T06:10:29.797Z,88203.91
2022-10-31T06:12:56.932Z,88207.94
2022-10-31T06:15:24.946Z,88204.63
2022-10-31T06:18:06.938Z,88205.41
2022-10-31T06:20:35.255Z,88208.69
2022-10-31T06:23:03.761Z,88206.19
2022-10-31T06:25:31.267Z,88215.59
2022-10-31T06:27:58.558Z,88216.75
2022-10-31T06:30:26.583Z,88214.13
2022-10-31T06:32:54.024Z,88214.13
2022-10-31T06:35:21.466Z,88219.06
2022-10-31T06:37:55.756Z,88213.81
2022-10-31T06:40:25.264Z,88210.09
2022-10-31T06:43:02.496Z,88212.41
2022-10-31T06:45:30.333Z,88211.41
2022-10-31T06:50:45.839Z,88216.88
2022-10-31T06:53:13.268Z,88212.47
2022-10-31T06:55:40.977Z,88206.56
2022-10-31T06:58:10.740Z,88208.66
2022-10-31T07:00:38.296Z,88214.41
2022-10-31T07:03:11.586Z,88213.00
2022-10-31T07:05:39.126Z,88216.47
2022-10-31T07:08:10.527Z,88212.84
2022-10-31T07:10:41.002Z,88208.91
2022-10-31T07:13:14.263Z,88206.81
2022-10-31T07:15:44.096Z,88210.41
2022-10-31T07:18:13.600Z,88215.84
2022-10-31T07:20:40.867Z,88216.03
2022-10-31T07:23:10.539Z,88214.25
2022-10-31T07:25:39.116Z,88216.38
2022-10-31T07:28:07.014Z,88222.97
2022-10-31T07:30:34.503Z,88212.66
2022-10-31T07:33:01.811Z,88218.53
2022-10-31T07:35:30.551Z,88218.00
2022-10-31T07:37:58.694Z,88214.91
2022-10-31T07:40:26.545Z,88217.44
2022-10-31T07:42:56.082Z,88207.53
2022-10-31T07:45:26.941Z,88211.63
2022-10-31T07:47:54.865Z,88214.13
2022-10-31T07:50:32.105Z,88207.72
2022-10-31T07:53:05.889Z,88206.06
2022-10-31T07:55:34.086Z,88202.22
2022-10-31T07:58:20.613Z,88205.84
2022-10-31T08:00:49.070Z,88209.81
2022-10-31T08:03:19.999Z,88200.53
2022-10-31T08:05:47.514Z,88191.34
2022-10-31T08:08:15.710Z,88196.06
2022-10-31T08:10:43.285Z,88198.16
2022-10-31T08:13:15.184Z,88191.25
2022-10-31T08:15:42.790Z,88187.28
2022-10-31T08:18:15.729Z,88182.22
2022-10-31T08:20:44.608Z,88182.84
2022-10-31T08:23:13.545Z,88183.44
2022-10-31T08:25:41.426Z,88179.81
2022-10-31T08:28:11.301Z,88178.88
2022-10-31T08:30:39.337Z,88171.44
2022-10-31T08:33:18.497Z,88180.28
2022-10-31T08:35:45.979Z,88174.03
2022-10-31T08:38:14.322Z,88170.03
2022-10-31T08:40:42.316Z,88162.28
2022-10-31T08:43:18.169Z,88157.09
2022-10-31T08:45:49.539Z,88162.59
2022-10-31T08:48:18.387Z,88155.53
2022-10-31T08:50:46.942Z,88158.03
2022-10-31T08:53:16.922Z,88151.34
2022-10-31T08:55:46.007Z,88152.59
2022-10-31T08:58:19.593Z,88151.97
2022-10-31T09:00:49.271Z,88148.72
2022-10-31T09:03:26.135Z,88151.47
2022-10-31T09:05:58.609Z,88145.88
2022-10-31T09:08:26.600Z,88138.81
2022-10-31T09:10:57.717Z,88143.81
2022-10-31T09:13:27.967Z,88134.47
2022-10-31T09:15:58.091Z,88129.69
2022-10-31T09:18:26.096Z,88130.88
2022-10-31T09:20:53.251Z,88136.63
2022-10-31T09:23:23.789Z,88131.81
2022-10-31T09:25:53.708Z,88132.63
2022-10-31T09:28:24.552Z,88137.63
2022-10-31T09:30:54.367Z,88123.03
2022-10-31T09:33:22.345Z,88123.47
2022-10-31T09:35:49.627Z,88125.41
2022-10-31T09:38:22.139Z,88123.97
2022-10-31T09:41:26.462Z,88127.81
2022-10-31T09:44:38.333Z,88119.50
2022-10-31T09:47:11.309Z,88129.75
2022-10-31T09:50:19.227Z,88134.38
2022-10-31T09:53:03.709Z,88132.16
2022-10-31T09:55:45.586Z,88126.91
2022-10-31T09:58:29.787Z,88123.56
2022-10-31T10:01:02.889Z,88120.47
2022-10-31T10:03:49.715Z,88118.59
2022-10-31T10:06:33.668Z,88129.63
2022-10-31T10:09:02.557Z,88121.34
2022-10-31T10:12:15.407Z,88126.66
2022-10-31T10:15:19.518Z,88117.59
2022-10-31T10:18:24.236Z,88117.97
2022-10-31T10:21:35.920Z,88115.38
2022-10-31T10:24:23.715Z,88111.63
2022-10-31T10:27:17.998Z,88113.16
2022-10-31T10:30:23.269Z,88109.78
2022-10-31T10:33:03.544Z,88104.09
2022-10-31T10:35:34.668Z,88114.34
2022-10-31T10:38:21.109Z,88112.09
2022-10-31T10:40:49.113Z,88104.53
2022-10-31T10:43:36.403Z,88106.06
2022-10-31T10:46:44.667Z,88101.91
2022-10-31T10:49:43.059Z,88098.13
2022-10-31T10:52:54.232Z,88101.13
2022-10-31T10:55:30.281Z,88097.72
2022-10-31T10:58:04.702Z,88091.28
2022-10-31T11:00:47.925Z,88095.47
2022-10-31T11:03:17.952Z,88084.47
2022-10-31T11:05:59.255Z,88083.31
2022-10-31T11:08:37.370Z,88083.34
2022-10-31T11:11:12.307Z,88076.84
2022-10-31T11:13:44.895Z,88079.13
2022-10-31T11:16:39.542Z,88072.25
2022-10-31T11:19:17.660Z,88071.72
2022-10-31T11:21:49.843Z,88061.66
2022-10-31T11:24:26.109Z,88061.41
2022-10-31T11:27:12.749Z,88056.06
2022-10-31T11:29:40.017Z,88061.56
2022-10-31T11:32:22.044Z,88055.03
2022-10-31T11:35:00.305Z,88048.66
2022-10-31T11:37:33.106Z,88038.09
2022-10-31T11:40:06.351Z,88044.94
2022-10-31T11:42:43.369Z,88029.69
2022-10-31T11:45:20.669Z,88034.22
2022-10-31T11:47:58.239Z,88030.03
2022-10-31T11:50:35.625Z,88022.38
2022-10-31T11:53:04.588Z,88025.78
2022-10-31T11:55:39.248Z,88021.66
2022-10-31T11:58:21.617Z,88011.59
2022-10-31T12:00:56.299Z,88007.00
2022-10-31T12:03:23.480Z,88007.97
2022-10-31T12:06:20.562Z,87992.25
2022-10-31T12:08:48.143Z,87990.94
2022-10-31T12:11:50.730Z,87993.53
2022-10-31T12:15:02.225Z,87984.56
2022-10-31T12:17:47.368Z,87990.09
2022-10-31T12:21:10.074Z,87987.41
2022-10-31T12:24:21.796Z,87982.16
2022-10-31T12:26:54.949Z,87981.00
2022-10-31T12:29:36.291Z,87975.03
2022-10-31T12:32:30.653Z,87968.25
2022-10-31T12:35:41.992Z,87973.44
2022-10-31T12:38:36.628Z,87970.84
2022-10-31T12:41:42.582Z,87963.16
2022-10-31T12:44:37.612Z,87966.78
2022-10-31T12:47:38.863Z,87962.78
2022-10-31T12:50:52.922Z,87964.59
2022-10-31T12:53:35.026Z,87960.97
2022-10-31T12:56:31.942Z,87960.88
2022-10-31T12:59:25.402Z,87961.69
2022-10-31T13:02:04.689Z,87954.44
2022-10-31T13:05:11.444Z,87947.94
2022-10-31T13:08:10.278Z,87953.56
2022-10-31T13:10:57.038Z,87951.47
2022-10-31T13:13:42.443Z,87948.97
2022-10-31T13:16:23.727Z,87951.09
2022-10-31T13:19:01.395Z,87947.41
2022-10-31T13:22:05.545Z,87948.34
2022-10-31T13:25:12.080Z,87941.59
2022-10-31T13:28:03.749Z,87935.25
2022-10-31T13:30:37.523Z,87941.78
2022-10-31T13:33:40.796Z,87931.19
2022-10-31T13:36:40.490Z,87938.94
2022-10-31T13:39:44.594Z,87933.34
2022-10-31T13:42:49.705Z,87939.16
2022-10-31T13:45:21.832Z,87930.13
2022-10-31T13:48:20.980Z,87941.22
2022-10-31T13:51:01.960Z,87937.47
2022-10-31T13:53:41.288Z,87932.19
2022-10-31T13:56:27.841Z,87932.59
2022-10-31T13:59:17.333Z,87937.22
2022-10-31T14:01:57.526Z,87938.75
2022-10-31T14:04:29.318Z,87937.63
2022-10-31T14:07:07.479Z,87935.34
2022-10-31T14:09:49.363Z,87941.13
2022-10-31T14:12:41.399Z,87941.16
2022-10-31T14:15:25.402Z,87935.06
2022-10-31T14:18:20.167Z,87930.84
2022-10-31T14:20:47.371Z,87924.34
2022-10-31T14:23:40.520Z,87929.22
2022-10-31T14:26:26.711Z,87931.19
2022-10-31T14:29:01.362Z,87929.31
2022-10-31T14:31:42.273Z,87936.22
2022-10-31T14:34:38.398Z,87931.72
2022-10-31T14:37:43.343Z,87932.56
2022-10-31T14:40:27.539Z,87932.69
2022-10-31T14:43:13.180Z,87924.75
2022-10-31T14:46:29.121Z,87928.97
2022-10-31T14:49:35.316Z,87919.91
2022-10-31T14:52:08.091Z,87922.22
2022-10-31T14:54:48.805Z,87921.09
2022-10-31T14:57:23.449Z,87914.34
2022-10-31T14:59:59.180Z,87921.19
2022-10-31T15:03:13.546Z,87916.69
2022-10-31T15:05:52.911Z,87916.34
2022-10-31T15:08:35.599Z,87913.00
2022-10-31T15:11:25.449Z,87916.84
2022-10-31T15:13:57.894Z,87915.38
2022-10-31T15:16:40.745Z,87915.41
2022-10-31T15:19:16.616Z,87911.63
2022-10-31T15:21:46.687Z,87909.41
2022-10-31T15:24:17.271Z,87909.81
2022-10-31T15:26:50.256Z,87901.50
2022-10-31T15:29:20.923Z,87905.34
2022-10-31T15:31:54.254Z,87914.50
2022-10-31T15:34:44.070Z,87917.16
2022-10-31T15:37:17.890Z,87908.03
2022-10-31T15:39:47.370Z,87911.50
2022-10-31T15:42:43.759Z,87915.34
2022-10-31T15:45:10.914Z,87910.78
2022-10-31T15:47:38.933Z,87909.25
2022-10-31T15:50:21.791Z,87911.59
2022-10-31T15:52:50.252Z,87918.44
2022-10-31T15:55:26.695Z,87914.28
2022-10-31T15:58:00.136Z,87910.50
2022-10-31T16:00:34.473Z,87912.41
2022-10-31T16:03:07.597Z,87911.69
2022-10-31T16:05:53.116Z,87908.25
2022-10-31T16:08:33.916Z,87918.16
2022-10-31T16:11:38.002Z,87914.41
2022-10-31T16:14:25.273Z,87915.91
2022-10-31T16:17:03.049Z,87921.25
2022-10-31T16:19:44.186Z,87919.00
2022-10-31T16:22:21.960Z,87922.81
2022-10-31T16:24:52.256Z,87923.97
2022-10-31T16:27:25.820Z,87927.38
2022-10-31T16:29:53.598Z,87930.03
2022-10-31T16:32:38.523Z,87927.75
2022-10-31T16:35:35.990Z,87933.44
2022-10-31T16:38:05.360Z,87934.22
2022-10-31T16:40:33.480Z,87935.00
2022-10-31T16:43:02.270Z,87931.97
2022-10-31T16:45:34.064Z,87935.78
2022-10-31T16:48:12.112Z,87943.75
2022-10-31T16:50:39.739Z,87941.84
2022-10-31T16:53:14.789Z,87929.72
2022-10-31T16:55:56.140Z,87943.75
2022-10-31T16:58:36.512Z,87948.72
2022-10-31T17:01:07.885Z,87945.28
2022-10-31T17:03:36.312Z,87945.66
2022-10-31T17:06:03.792Z,87953.63
2022-10-31T17:08:31.067Z,87944.53
2022-10-31T17:11:00.699Z,87943.03
2022-10-31T17:13:31.909Z,87951.00
2022-10-31T17:16:02.978Z,87953.66
2022-10-31T17:18:30.696Z,87958.59
2022-10-31T17:21:05.629Z,87957.81
2022-10-31T17:23:33.682Z,87955.16
2022-10-31T17:26:03.679Z,87960.88
2022-10-31T17:28:44.548Z,87962.38
2022-10-31T17:31:27.174Z,87975.25
2022-10-31T17:34:02.042Z,87971.47
2022-10-31T17:36:32.522Z,87974.50
2022-10-31T17:39:00.312Z,87981.72
2022-10-31T17:41:27.537Z,87976.38
2022-10-31T17:43:59.612Z,87973.72
2022-10-31T17:46:27.191Z,87976.78
2022-10-31T17:48:54.408Z,87972.59
2022-10-31T17:51:21.627Z,87969.94
2022-10-31T17:53:48.894Z,87979.06
2022-10-31T17:56:16.226Z,87977.16
2022-10-31T17:58:43.376Z,87981.69
2022-10-31T18:01:14.345Z,87995.34
2022-10-31T18:03:42.162Z,87993.81
2022-10-31T18:06:11.127Z,87988.81
2022-10-31T18:08:41.200Z,87988.03
2022-10-31T18:11:16.001Z,87991.81
2022-10-31T18:13:43.209Z,87994.84
2022-10-31T18:16:15.332Z,87990.25
2022-10-31T18:18:42.874Z,87988.72
2022-10-31T18:21:10.501Z,87985.63
2022-10-31T18:23:38.022Z,87992.41
2022-10-31T18:26:05.347Z,87981.03
2022-10-31T18:28:32.571Z,87979.50
2022-10-31T18:31:00.460Z,87980.22
2022-10-31T18:33:28.228Z,87971.88
2022-10-31T18:35:56.000Z,87982.44
2022-10-31T18:38:23.583Z,87981.25
2022-10-31T18:40:52.033Z,87980.88
2022-10-31T18:43:19.210Z,87975.53
2022-10-31T18:45:48.585Z,87970.94
2022-10-31T18:48:17.658Z,87970.13
2022-10-31T18:50:45.262Z,87972.75
2022-10-31T18:53:12.530Z,87976.09
2022-10-31T18:55:45.731Z,87976.09
2022-10-31T18:58:17.748Z,87979.00
2022-10-31T19:00:45.350Z,87975.19
2022-10-31T19:03:13.912Z,87980.81
2022-10-31T19:05:41.331Z,87982.25
2022-10-31T19:08:08.591Z,87978.44
2022-10-31T19:10:38.587Z,87974.63
2022-10-31T19:13:06.696Z,87967.03
2022-10-31T19:15:35.564Z,87968.84
2022-10-31T19:18:03.350Z,87969.16
2022-10-31T19:20:31.767Z,87979.41
2022-10-31T19:22:59.287Z,87984.59
2022-10-31T19:25:26.754Z,87980.03
2022-10-31T19:27:54.238Z,87994.72
2022-10-31T19:30:21.768Z,87998.44
2022-10-31T19:32:48.974Z,87990.44
2022-10-31T19:35:16.294Z,87984.31
2022-10-31T19:37:43.447Z,87988.44
2022-10-31T19:40:11.666Z,87989.53
2022-10-31T19:42:38.833Z,87992.91
2022-10-31T19:45:06.866Z,88001.09
2022-10-31T19:47:34.209Z,87995.38
2022-10-31T19:50:02.513Z,87996.47
2022-10-31T19:52:29.816Z,88000.19
2022-10-31T19:54:57.013Z,88001.63
2022-10-31T19:57:41.959Z,87995.94
2022-10-31T20:00:12.317Z,88003.03
2022-10-31T20:02:39.565Z,87995.41
2022-10-31T20:05:07.268Z,87989.00
2022-10-31T20:07:34.810Z,88001.78
2022-10-31T20:10:01.993Z,88006.63
2022-10-31T20:12:29.605Z,88008.09
2022-10-31T20:14:56.801Z,88003.50
2022-10-31T20:17:23.968Z,88008.75
2022-10-31T20:19:51.199Z,88000.75
2022-10-31T20:22:18.653Z,88010.84
2022-10-31T20:24:46.160Z,88008.53
2022-10-31T20:27:13.399Z,88012.56
2022-10-31T20:29:40.705Z,88015.94
2022-10-31T20:32:08.049Z,88010.25
2022-10-31T20:34:35.274Z,88012.44
2022-10-31T20:37:02.486Z,88009.34
2022-10-31T20:39:29.702Z,88019.13
2022-10-31T20:41:56.903Z,88016.13
2022-10-31T20:44:24.102Z,88018.31
2022-10-31T20:46:51.265Z,88031.06
2022-10-31T20:49:18.455Z,88023.91
2022-10-31T20:51:45.782Z,88029.06
2022-10-31T20:54:14.388Z,88030.53
2022-10-31T20:56:41.605Z,88033.81
2022-10-31T20:59:08.915Z,88028.47
2022-10-31T21:01:36.320Z,88027.25
2022-10-31T21:04:05.336Z,88027.94
2022-10-31T21:06:32.680Z,88026.38
2022-10-31T21:08:59.950Z,88033.09
2022-10-31T21:11:29.057Z,88027.78
2022-10-31T21:13:56.569Z,88034.09
2022-10-31T21:16:32.821Z,88032.94
2022-10-31T21:19:01.215Z,88033.59
2022-10-31T21:21:36.868Z,88022.63
2022-10-31T21:24:13.987Z,88036.84
2022-10-31T21:26:46.068Z,88036.00
2022-10-31T21:29:15.072Z,88035.25
2022-10-31T21:31:43.479Z,88032.91
2022-10-31T21:34:11.864Z,88032.50
2022-10-31T21:36:39.800Z,88033.25
2022-10-31T21:39:08.745Z,88035.47
2022-10-31T21:41:36.579Z,88031.31
2022-10-31T21:44:04.516Z,88031.25
2022-10-31T21:46:33.857Z,88035.34
2022-10-31T21:49:03.776Z,88042.13
2022-10-31T21:51:35.577Z,88033.41
2022-10-31T21:54:03.523Z,88036.31
2022-10-31T21:56:31.128Z,88038.94
2022-10-31T21:58:59.362Z,88034.72
2022-10-31T22:01:29.192Z,88042.16
2022-10-31T22:03:57.982Z,88025.59
2022-10-31T22:06:26.955Z,88039.84
2022-10-31T22:08:54.937Z,88034.59
2022-10-31T22:11:22.549Z,88034.53
2022-10-31T22:13:50.752Z,88026.94
2022-10-31T22:16:22.262Z,88035.19
2022-10-31T22:18:54.744Z,88032.75
2022-10-31T22:21:25.656Z,88030.53
2022-10-31T22:24:01.998Z,88034.94
2022-10-31T22:26:33.579Z,88036.84
2022-10-31T22:29:05.770Z,88031.84
2022-10-31T22:31:37.263Z,88037.53
2022-10-31T22:34:04.543Z,88031.09
2022-10-31T22:36:32.448Z,88024.38
2022-10-31T22:39:00.041Z,88030.00
2022-10-31T22:41:31.338Z,88027.38
2022-10-31T22:44:00.107Z,88034.84
2022-10-31T22:46:37.147Z,88035.53
2022-10-31T22:49:12.289Z,88032.25
2022-10-31T22:51:40.993Z,88044.31
2022-10-31T22:54:14.137Z,88045.41
2022-10-31T22:56:41.786Z,88037.44
2022-10-31T22:59:13.977Z,88035.44
2022-10-31T23:01:41.601Z,88036.22
2022-10-31T23:04:09.312Z,88033.59
2022-10-31T23:06:37.692Z,88036.22
2022-10-31T23:09:07.810Z,88033.59
2022-10-31T23:11:39.202Z,88032.47
2022-10-31T23:14:14.704Z,88029.34
2022-10-31T23:16:54.979Z,88028.22
2022-10-31T23:19:30.365Z,88033.34
2022-10-31T23:22:02.920Z,88026.66
2022-10-31T23:24:39.628Z,88031.91
2022-10-31T23:27:13.995Z,88026.28
2022-10-31T23:29:52.906Z,88023.59
2022-10-31T23:32:27.251Z,88019.44
2022-10-31T23:34:58.466Z,88026.44
2022-10-31T23:37:29.954Z,88018.13
2022-10-31T23:39:58.076Z,88020.75
2022-10-31T23:42:27.170Z,88012.78
2022-10-31T23:44:55.132Z,88010.78
2022-10-31T23:47:23.379Z,88014.84
2022-10-31T23:49:51.348Z,88010.28
2022-10-31T23:52:18.608Z,88004.94
2022-10-31T23:54:45.973Z,88011.91
2022-10-31T23:57:15.846Z,88007.09
2022-10-31T23:59:43.460Z,88011.91
